Time;durP1;ratioP1;P1;durP2;ratioP2;P2;SDS_P1;SDS_P2;PMS_P1;PMS_P2;Temp;Humidity;BMP_temperature;BMP_pressure;BME280_temperature;BME280_humidity;BME280_pressure;Samples;Min_cycle;Max_cycle;Signal;HPM_P1;HPM_P2
2023/05/28 00:01:56;;;;;;;3.47;2.97;;;9.80;81.90;;;;;;4977146;28;20469;-51
2023/05/28 00:04:24;;;;;;;3.87;2.70;;;9.80;82.30;;;;;;4971622;28;20835;-51
2023/05/28 00:06:52;;;;;;;3.70;2.97;;;9.80;72.70;;;;;;4974166;28;20477;-50
2023/05/28 00:09:20;;;;;;;5.73;3.10;;;9.80;80.30;;;;;;4973517;28;20462;-50
2023/05/28 00:11:47;;;;;;;2.60;2.40;;;9.80;74.90;;;;;;4972964;28;20469;-51
2023/05/28 00:14:14;;;;;;;2.90;2.70;;;9.80;77.40;;;;;;4973323;28;20912;-50
2023/05/28 00:16:43;;;;;;;6.10;3.10;;;9.70;70.50;;;;;;4973410;28;20468;-50
2023/05/28 00:19:10;;;;;;;3.40;3.10;;;9.60;60.20;;;;;;4962951;28;20502;-51
2023/05/28 00:21:37;;;;;;;4.47;3.10;;;9.40;30.70;;;;;;4971774;28;20552;-50
2023/05/28 00:24:03;;;;;;;3.63;3.17;;;9.40;24.80;;;;;;4972069;28;20453;-50
2023/05/28 00:26:31;;;;;;;4.00;2.93;;;9.40;30.70;;;;;;4972433;28;20470;-49
2023/05/28 00:28:58;;;;;;;5.03;3.20;;;9.40;32.80;;;;;;4973772;28;20450;-52
2023/05/28 00:31:25;;;;;;;4.70;3.53;;;9.30;32.90;;;;;;4971526;28;20465;-51
2023/05/28 00:33:51;;;;;;;3.07;2.53;;;9.30;29.40;;;;;;4972973;28;20485;-50
2023/05/28 00:36:18;;;;;;;14.07;3.40;;;9.20;29.60;;;;;;4972698;28;20528;-50
2023/05/28 00:38:44;;;;;;;4.97;3.00;;;9.20;24.80;;;;;;4965505;28;20516;-51
2023/05/28 00:41:11;;;;;;;3.20;2.90;;;9.10;28.80;;;;;;4966852;28;21042;-50
2023/05/28 00:43:39;;;;;;;3.40;3.10;;;9.10;99.90;;;;;;4973087;28;20501;-51
2023/05/28 00:46:07;;;;;;;2.90;2.70;;;9.10;99.90;;;;;;4967018;28;20513;-51
2023/05/28 00:48:34;;;;;;;2.63;2.43;;;9.10;99.90;;;;;;4971135;28;20462;-51
2023/05/28 00:51:01;;;;;;;3.47;2.90;;;9.10;99.70;;;;;;4973012;28;20493;-50
2023/05/28 00:53:27;;;;;;;3.13;2.83;;;9.00;99.90;;;;;;4972929;28;20485;-51
2023/05/28 00:55:55;;;;;;;5.33;3.20;;;8.90;99.90;;;;;;4971285;28;21080;-50
2023/05/28 00:58:23;;;;;;;3.50;3.10;;;8.90;99.90;;;;;;4972512;28;20465;-51
2023/05/28 01:00:51;;;;;;;6.43;3.67;;;8.80;99.90;;;;;;4971014;28;20481;-50
2023/05/28 01:03:17;;;;;;;4.00;3.70;;;8.70;99.90;;;;;;4970484;28;20482;-50
2023/05/28 01:05:44;;;;;;;6.40;3.10;;;8.90;99.90;;;;;;4972131;28;20867;-52
2023/05/28 01:08:11;;;;;;;4.93;3.10;;;8.90;99.90;;;;;;4972853;28;20514;-50
2023/05/28 01:10:38;;;;;;;5.27;3.40;;;8.90;99.90;;;;;;4972613;28;20466;-50
2023/05/28 01:13:07;;;;;;;4.37;3.60;;;8.80;99.90;;;;;;4972187;28;20461;-51
2023/05/28 01:15:35;;;;;;;3.50;2.87;;;8.80;99.90;;;;;;4972109;28;20843;-50
2023/05/28 01:18:04;;;;;;;4.07;3.10;;;8.80;99.90;;;;;;4970339;28;21035;-50
2023/05/28 01:20:31;;;;;;;3.00;2.70;;;8.70;99.90;;;;;;4971910;28;20469;-51
2023/05/28 01:23:01;;;;;;;5.73;3.60;;;8.60;99.90;;;;;;4970766;28;20469;-50
2023/05/28 01:25:30;;;;;;;4.43;3.67;;;8.50;99.90;;;;;;4973233;28;20482;-50
2023/05/28 01:27:57;;;;;;;9.00;3.50;;;8.60;99.90;;;;;;4971626;28;21018;-50
2023/05/28 01:30:23;;;;;;;7.27;4.10;;;8.70;99.90;;;;;;4973798;28;20588;-51
2023/05/28 01:32:50;;;;;;;6.53;3.30;;;8.70;99.90;;;;;;4969952;28;20473;-50
2023/05/28 01:35:16;;;;;;;4.10;3.70;;;8.70;99.90;;;;;;4970130;28;20486;-51
2023/05/28 01:37:48;;;;;;;6.97;3.83;;;8.60;99.90;;;;;;4966784;28;20466;-51
2023/05/28 01:40:16;;;;;;;3.90;3.27;;;8.60;99.90;;;;;;4971329;28;20473;-50
2023/05/28 01:42:46;;;;;;;5.50;3.40;;;8.60;99.90;;;;;;4969784;28;20461;-50
2023/05/28 01:45:13;;;;;;;6.23;4.17;;;8.50;99.90;;;;;;4964728;28;20473;-50
2023/05/28 01:47:41;;;;;;;4.83;3.47;;;8.50;99.90;;;;;;4969586;28;20500;-52
2023/05/28 01:50:09;;;;;;;10.13;3.87;;;8.50;99.90;;;;;;4968328;28;20453;-50
2023/05/28 01:52:35;;;;;;;11.30;4.20;;;8.50;99.90;;;;;;4969362;28;20464;-51
2023/05/28 01:55:02;;;;;;;5.80;3.90;;;8.50;99.90;;;;;;4964987;28;20576;-51
2023/05/28 01:57:28;;;;;;;8.17;4.53;;;8.40;99.90;;;;;;4968113;28;20520;-50
2023/05/28 01:59:56;;;;;;;4.23;3.57;;;8.20;99.90;;;;;;4969514;28;21029;-51
2023/05/28 02:02:26;;;;;;;4.47;4.07;;;8.10;99.90;;;;;;4972204;28;20528;-51
2023/05/28 02:04:53;;;;;;;7.03;3.63;;;8.10;99.90;;;;;;4969799;28;21025;-51
2023/05/28 02:07:20;;;;;;;5.10;3.50;;;8.20;99.90;;;;;;4970853;28;20489;-50
2023/05/28 02:09:46;;;;;;;5.03;4.23;;;8.20;99.90;;;;;;4970992;28;20597;-51
2023/05/28 02:12:13;;;;;;;7.90;4.23;;;8.10;99.90;;;;;;4966215;28;20453;-50
2023/05/28 02:14:40;;;;;;;4.30;3.90;;;7.90;99.90;;;;;;4966410;28;20577;-50
2023/05/28 02:17:09;;;;;;;6.57;4.50;;;8.00;99.90;;;;;;4974115;28;20469;-51
2023/05/28 02:19:35;;;;;;;4.40;3.97;;;8.00;99.90;;;;;;4971757;28;21031;-51
2023/05/28 02:22:03;;;;;;;6.70;3.60;;;8.00;99.90;;;;;;4975018;28;20473;-50
2023/05/28 02:24:30;;;;;;;4.23;3.67;;;8.00;99.90;;;;;;4973005;28;20516;-51
2023/05/28 02:26:57;;;;;;;6.40;3.87;;;7.90;99.90;;;;;;4975466;28;20508;-52
2023/05/28 02:29:23;;;;;;;8.27;4.30;;;7.90;99.90;;;;;;4974776;28;20458;-50
2023/05/28 02:31:50;;;;;;;7.70;3.97;;;8.00;99.90;;;;;;4967353;28;20972;-50
2023/05/28 02:34:18;;;;;;;8.83;4.00;;;7.70;99.90;;;;;;4973602;28;20493;-51
2023/05/28 02:36:44;;;;;;;4.93;3.63;;;7.80;99.90;;;;;;4975845;28;20466;-50
2023/05/28 02:39:11;;;;;;;6.60;4.70;;;7.80;99.90;;;;;;4971813;28;20947;-50
2023/05/28 02:41:37;;;;;;;6.33;4.37;;;7.90;99.90;;;;;;4971553;28;20474;-51
2023/05/28 02:44:04;;;;;;;9.50;4.27;;;7.80;99.90;;;;;;4972160;28;20458;-51
2023/05/28 02:46:31;;;;;;;6.87;4.40;;;7.80;99.90;;;;;;4973145;28;20470;-50
2023/05/28 02:48:57;;;;;;;7.57;4.33;;;7.60;99.90;;;;;;4973765;28;20512;-51
2023/05/28 02:51:25;;;;;;;7.13;4.20;;;7.70;99.90;;;;;;4975065;28;20521;-50
2023/05/28 02:53:52;;;;;;;5.60;4.10;;;7.70;99.90;;;;;;4973001;28;20489;-50
2023/05/28 02:56:18;;;;;;;4.70;4.20;;;7.60;99.90;;;;;;4973047;28;20466;-50
2023/05/28 02:58:45;;;;;;;5.73;3.60;;;7.60;99.90;;;;;;4972526;28;20528;-50
2023/05/28 03:01:12;;;;;;;4.33;3.93;;;7.60;99.90;;;;;;4964920;28;20998;-50
2023/05/28 03:03:38;;;;;;;8.53;4.47;;;7.60;99.90;;;;;;4973378;28;20488;-50
2023/05/28 03:06:07;;;;;;;4.93;4.27;;;7.60;99.90;;;;;;4971226;28;20509;-51
2023/05/28 03:08:35;;;;;;;3.90;3.60;;;7.60;99.90;;;;;;4965642;28;20469;-50
2023/05/28 03:11:01;;;;;;;5.83;4.30;;;7.50;99.90;;;;;;4971938;28;20545;-50
2023/05/28 03:13:28;;;;;;;3.80;3.40;;;7.50;99.90;;;;;;4973352;28;20473;-51
2023/05/28 03:15:54;;;;;;;9.57;3.90;;;7.50;99.90;;;;;;4971048;28;20493;-52
2023/05/28 03:18:21;;;;;;;7.33;4.30;;;7.40;99.90;;;;;;4970084;28;20552;-50
2023/05/28 03:20:48;;;;;;;4.43;3.60;;;7.50;99.90;;;;;;4972060;28;20474;-50
2023/05/28 03:23:15;;;;;;;5.57;3.67;;;7.40;99.90;;;;;;4971371;28;20955;-50
2023/05/28 03:25:43;;;;;;;5.97;3.80;;;7.40;99.90;;;;;;4971058;28;21050;-50
2023/05/28 03:28:09;;;;;;;4.73;4.30;;;7.50;99.90;;;;;;4972375;28;20520;-51
2023/05/28 03:30:36;;;;;;;7.53;3.90;;;7.50;99.90;;;;;;4970679;28;20528;-51
2023/05/28 03:33:02;;;;;;;4.20;3.50;;;7.50;99.90;;;;;;4971124;28;20470;-51
2023/05/28 03:35:29;;;;;;;4.83;3.60;;;7.40;99.90;;;;;;4971681;28;20575;-51
2023/05/28 03:37:56;;;;;;;4.80;4.30;;;7.40;99.90;;;;;;4968336;28;20839;-51
2023/05/28 03:40:22;;;;;;;4.70;3.53;;;7.40;99.90;;;;;;4971709;28;20490;-50
2023/05/28 03:42:50;;;;;;;5.27;4.10;;;7.40;99.90;;;;;;4972868;28;20469;-51
2023/05/28 03:45:17;;;;;;;3.97;3.67;;;7.50;99.90;;;;;;4965359;28;21053;-51
2023/05/28 03:47:44;;;;;;;6.80;4.10;;;7.40;99.90;;;;;;4970412;28;20472;-51
2023/05/28 03:50:11;;;;;;;5.80;3.70;;;7.50;99.90;;;;;;4970760;28;20489;-50
2023/05/28 03:52:37;;;;;;;8.00;4.30;;;7.50;99.90;;;;;;4972174;28;20462;-51
2023/05/28 03:55:05;;;;;;;5.63;4.27;;;7.40;99.90;;;;;;4974574;28;21046;-50
2023/05/28 03:57:31;;;;;;;5.43;3.67;;;7.40;99.90;;;;;;4972156;28;20466;-51
2023/05/28 04:00:00;;;;;;;6.73;4.63;;;7.40;99.90;;;;;;4972413;28;20529;-51
2023/05/28 04:02:26;;;;;;;4.67;3.67;;;7.60;99.90;;;;;;4973735;28;20492;-51
2023/05/28 04:04:53;;;;;;;4.83;3.77;;;7.60;99.90;;;;;;4973153;28;20528;-50
2023/05/28 04:07:19;;;;;;;4.10;3.70;;;7.70;99.90;;;;;;4974330;28;20972;-50
2023/05/28 04:09:46;;;;;;;6.60;4.20;;;7.70;99.90;;;;;;4974807;28;20458;-51
2023/05/28 04:12:13;;;;;;;8.67;4.67;;;7.80;99.90;;;;;;4982669;28;20550;-52
2023/05/28 04:14:40;;;;;;;9.90;4.67;;;7.80;99.90;;;;;;4969083;28;20489;-52
2023/05/28 04:17:10;;;;;;;4.57;4.07;;;7.80;99.90;;;;;;4970412;28;20481;-51
2023/05/28 04:19:37;;;;;;;9.43;4.80;;;7.90;99.90;;;;;;4970827;28;20473;-52
2023/05/28 04:22:04;;;;;;;4.57;4.07;;;7.90;99.90;;;;;;4981128;28;20462;-51
2023/05/28 04:24:30;;;;;;;4.87;4.40;;;7.90;99.90;;;;;;4969084;28;20532;-51
2023/05/28 04:26:59;;;;;;;8.17;4.50;;;8.00;99.90;;;;;;4978063;28;20564;-52
2023/05/28 04:29:29;;;;;;;6.70;4.27;;;8.10;99.90;;;;;;4972613;28;20465;-51
2023/05/28 04:31:57;;;;;;;7.23;4.13;;;8.20;99.90;;;;;;4977703;28;20484;-52
2023/05/28 04:34:25;;;;;;;7.17;4.60;;;8.30;99.90;;;;;;4968698;28;20477;-51
2023/05/28 04:36:52;;;;;;;5.43;4.57;;;8.40;99.90;;;;;;4970249;28;20470;-51
2023/05/28 04:39:20;;;;;;;7.27;5.00;;;8.50;99.90;;;;;;4971456;28;20465;-51
2023/05/28 04:41:47;;;;;;;6.13;3.80;;;8.60;99.90;;;;;;4971756;28;20465;-51
2023/05/28 04:44:15;;;;;;;10.97;4.70;;;8.70;99.90;;;;;;4970894;28;20529;-51
2023/05/28 04:46:43;;;;;;;10.00;4.67;;;8.70;99.90;;;;;;4971400;28;20462;-51
2023/05/28 04:49:10;;;;;;;7.70;4.13;;;8.80;99.90;;;;;;4971967;28;20474;-52
2023/05/28 04:51:38;;;;;;;6.33;4.67;;;8.80;99.90;;;;;;4971380;28;20465;-51
2023/05/28 04:54:05;;;;;;;7.00;4.10;;;9.00;99.90;;;;;;4984122;22;20488;-51
2023/05/28 04:56:31;;;;;;;5.67;4.10;;;9.00;99.90;;;;;;5008606;28;20491;-51
2023/05/28 04:58:58;;;;;;;4.83;4.30;;;9.10;99.90;;;;;;5008724;28;20468;-50
2023/05/28 05:01:24;;;;;;;7.93;4.67;;;9.20;99.90;;;;;;5005729;28;20950;-51
2023/05/28 05:03:51;;;;;;;7.63;4.13;;;9.30;99.90;;;;;;5005265;28;20464;-52
2023/05/28 05:06:18;;;;;;;15.33;4.00;;;9.40;99.90;;;;;;5010511;28;20466;-52
2023/05/28 05:08:46;;;;;;;5.40;4.30;;;9.50;99.90;;;;;;5008195;28;20496;-51
2023/05/28 05:11:14;;;;;;;4.20;3.90;;;9.70;99.90;;;;;;5004878;28;20978;-52
2023/05/28 05:13:40;;;;;;;5.70;4.27;;;9.80;99.90;;;;;;5008809;28;20464;-51
2023/05/28 05:16:07;;;;;;;6.17;4.37;;;9.90;99.90;;;;;;5011086;28;20480;-52
2023/05/28 05:18:33;;;;;;;5.50;4.00;;;10.10;99.90;;;;;;5009328;28;20878;-52
2023/05/28 05:21:00;;;;;;;9.03;5.20;;;10.20;99.90;;;;;;5008769;28;20533;-51
2023/05/28 05:23:27;;;;;;;7.50;4.33;;;10.40;99.90;;;;;;5009139;28;20545;-50
2023/05/28 05:25:54;;;;;;;5.37;3.80;;;10.50;99.90;;;;;;5009284;28;20490;-51
2023/05/28 05:28:21;;;;;;;7.30;4.40;;;10.70;99.90;;;;;;5009722;28;20491;-50
2023/05/28 05:30:48;;;;;;;4.90;4.43;;;10.90;99.90;;;;;;5013259;28;20576;-52
2023/05/28 05:33:15;;;;;;;4.60;4.00;;;11.10;99.90;;;;;;5007239;28;20463;-52
2023/05/28 05:35:41;;;;;;;5.53;4.40;;;11.30;99.90;;;;;;5009286;28;20542;-51
2023/05/28 05:38:08;;;;;;;9.33;3.93;;;11.50;99.90;;;;;;5006305;28;20587;-50
2023/05/28 05:40:34;;;;;;;4.17;3.77;;;11.60;99.90;;;;;;5010749;28;20460;-51
2023/05/28 05:43:02;;;;;;;7.27;3.47;;;11.70;99.90;;;;;;5007529;28;20546;-52
2023/05/28 05:45:29;;;;;;;9.70;4.70;;;11.90;99.90;;;;;;5010530;28;21001;-50
2023/05/28 05:47:56;;;;;;;8.87;4.70;;;12.00;99.90;;;;;;5012545;28;20463;-51
2023/05/28 05:50:22;;;;;;;6.13;4.67;;;12.10;99.90;;;;;;5007184;28;20503;-52
2023/05/28 05:52:49;;;;;;;10.07;4.37;;;12.30;47.60;;;;;;5010361;28;20543;-52
2023/05/28 05:55:16;;;;;;;9.47;4.57;;;12.50;87.20;;;;;;5011113;28;20538;-52
2023/05/28 05:57:43;;;;;;;6.73;4.57;;;12.70;99.90;;;;;;5013050;28;20853;-51
2023/05/28 06:00:13;;;;;;;5.67;4.53;;;12.90;99.90;;;;;;5016579;28;20529;-51
2023/05/28 06:02:39;;;;;;;9.73;3.97;;;13.00;99.90;;;;;;5009631;28;20464;-52
2023/05/28 06:05:06;;;;;;;7.97;4.60;;;13.10;99.90;;;;;;5014111;28;20535;-51
2023/05/28 06:07:33;;;;;;;4.30;3.90;;;13.20;99.90;;;;;;5010146;28;20995;-50
2023/05/28 06:10:00;;;;;;;11.30;4.43;;;13.30;71.50;;;;;;5012166;28;20478;-52
2023/05/28 06:12:26;;;;;;;20.37;5.40;;;13.40;71.40;;;;;;5014088;28;20519;-51
2023/05/28 06:14:53;;;;;;;6.13;3.40;;;13.60;99.10;;;;;;5012996;28;20507;-52
2023/05/28 06:17:22;;;;;;;7.10;3.53;;;13.70;99.90;;;;;;5011979;28;20870;-52
2023/05/28 06:19:49;;;;;;;11.53;3.40;;;13.90;99.90;;;;;;5010646;28;20490;-52
2023/05/28 06:22:16;;;;;;;7.73;3.70;;;14.10;99.90;;;;;;5012837;28;20485;-51
2023/05/28 06:24:42;;;;;;;7.10;4.13;;;14.20;99.90;;;;;;5009933;28;20483;-52
2023/05/28 06:27:09;;;;;;;7.77;4.00;;;14.40;99.90;;;;;;5015437;28;20460;-51
2023/05/28 06:29:36;;;;;;;11.13;4.13;;;14.50;99.90;;;;;;5008420;28;20924;-51
2023/05/28 06:32:03;;;;;;;13.70;3.30;;;14.70;99.90;;;;;;5011971;28;20468;-52
2023/05/28 06:34:31;;;;;;;11.37;4.50;;;14.80;99.90;;;;;;5012636;28;20506;-52
2023/05/28 06:36:57;;;;;;;8.30;3.97;;;15.00;99.90;;;;;;5008398;28;20483;-52
2023/05/28 06:39:24;;;;;;;5.67;3.20;;;15.10;99.90;;;;;;5008898;28;20885;-52
2023/05/28 06:41:51;;;;;;;8.93;3.70;;;15.20;99.90;;;;;;5010292;28;21017;-51
2023/05/28 06:44:17;;;;;;;5.80;3.73;;;15.40;99.90;;;;;;5010126;28;20514;-52
2023/05/28 06:46:44;;;;;;;8.40;3.53;;;15.40;99.90;;;;;;5008260;28;20541;-52
2023/05/28 06:49:11;;;;;;;5.43;3.60;;;15.50;99.90;;;;;;5013059;28;20467;-52
2023/05/28 06:51:38;;;;;;;12.30;3.70;;;15.60;99.90;;;;;;5011848;28;20522;-52
2023/05/28 06:54:05;;;;;;;9.53;4.00;;;15.70;99.90;;;;;;5008929;28;21021;-52
2023/05/28 06:56:32;;;;;;;6.20;3.80;;;15.80;99.90;;;;;;5012186;28;20566;-52
2023/05/28 06:58:58;;;;;;;5.23;3.03;;;15.80;99.90;;;;;;5008148;28;20459;-52
2023/05/28 07:01:25;;;;;;;8.60;3.10;;;15.90;99.90;;;;;;5009509;28;20529;-51
2023/05/28 07:03:51;;;;;;;7.03;3.47;;;16.00;99.90;;;;;;5014634;28;20827;-52
2023/05/28 07:06:18;;;;;;;11.80;4.10;;;16.00;99.90;;;;;;5010697;28;20456;-52
2023/05/28 07:08:46;;;;;;;7.67;3.17;;;16.10;99.90;;;;;;5009170;28;20466;-52
2023/05/28 07:11:13;;;;;;;8.87;4.13;;;16.20;99.90;;;;;;5009666;28;21023;-52
2023/05/28 07:13:40;;;;;;;9.63;3.40;;;16.30;99.90;;;;;;5005820;28;20460;-52
2023/05/28 07:16:07;;;;;;;6.83;3.10;;;16.40;99.90;;;;;;5015375;28;20519;-51
2023/05/28 07:18:34;;;;;;;5.43;3.07;;;16.40;99.90;;;;;;5009964;28;20822;-51
2023/05/28 07:21:00;;;;;;;4.97;3.37;;;16.60;99.90;;;;;;5009835;28;20464;-51
2023/05/28 07:23:27;;;;;;;7.63;3.80;;;16.60;99.90;;;;;;5003288;28;20845;-52
2023/05/28 07:25:55;;;;;;;16.73;3.20;;;16.70;99.90;;;;;;5002569;28;20531;-55
2023/05/28 07:28:21;;;;;;;6.60;3.33;;;16.70;99.90;;;;;;5002742;28;20468;-55
2023/05/28 07:30:48;;;;;;;5.93;2.70;;;16.80;99.90;;;;;;5007440;28;20549;-55
2023/05/28 07:33:15;;;;;;;6.70;3.50;;;17.00;99.90;;;;;;5006816;28;21812;-54
2023/05/28 07:35:42;;;;;;;3.77;2.63;;;17.20;99.90;;;;;;4998013;28;20591;-55
2023/05/28 07:38:10;;;;;;;5.77;2.83;;;17.20;99.90;;;;;;5007815;28;20463;-57
2023/05/28 07:40:37;;;;;;;14.47;3.30;;;17.30;99.90;;;;;;5009764;28;20506;-55
2023/05/28 07:43:05;;;;;;;9.73;2.80;;;17.30;99.90;;;;;;5011270;28;20456;-55
2023/05/28 07:45:31;;;;;;;4.43;2.57;;;17.40;99.90;;;;;;5006045;28;20493;-56
2023/05/28 07:47:58;;;;;;;13.07;3.10;;;17.40;99.90;;;;;;5010322;28;20518;-54
2023/05/28 07:50:25;;;;;;;7.60;2.70;;;17.50;99.90;;;;;;5007817;28;20546;-54
2023/05/28 07:52:51;;;;;;;2.60;2.40;;;17.50;99.90;;;;;;5010942;28;20464;-53
2023/05/28 07:55:18;;;;;;;12.30;2.90;;;17.70;99.90;;;;;;5007986;28;20488;-55
2023/05/28 07:57:45;;;;;;;8.10;3.20;;;17.80;99.90;;;;;;5006127;28;20488;-55
2023/05/28 08:00:15;;;;;;;5.47;3.07;;;17.90;99.90;;;;;;5007112;28;20487;-55
2023/05/28 08:02:42;;;;;;;18.80;3.10;;;18.00;99.90;;;;;;5007219;28;20820;-55
2023/05/28 08:05:09;;;;;;;10.30;3.10;;;18.10;99.90;;;;;;5007588;28;20565;-56
2023/05/28 08:07:36;;;;;;;7.33;2.90;;;18.20;99.90;;;;;;5003566;28;20467;-55
2023/05/28 08:10:03;;;;;;;4.60;3.40;;;18.30;99.90;;;;;;5008002;28;20803;-54
2023/05/28 08:12:29;;;;;;;6.27;2.93;;;18.50;99.90;;;;;;5004934;28;20933;-55
2023/05/28 08:14:56;;;;;;;7.47;2.90;;;18.50;99.90;;;;;;5009377;28;20483;-55
2023/05/28 08:17:24;;;;;;;6.30;3.20;;;18.70;99.90;;;;;;5009990;28;20480;-55
2023/05/28 08:19:51;;;;;;;14.13;3.03;;;18.80;99.90;;;;;;5009585;28;20460;-54
2023/05/28 08:22:18;;;;;;;4.03;2.83;;;18.90;99.90;;;;;;5009866;28;20470;-55
2023/05/28 08:24:44;;;;;;;7.43;3.90;;;19.00;99.90;;;;;;5010465;28;21008;-55
2023/05/28 08:27:11;;;;;;;5.10;3.07;;;19.00;99.90;;;;;;5003636;28;20459;-54
2023/05/28 08:29:38;;;;;;;7.10;2.70;;;19.10;99.90;;;;;;5001899;28;20472;-53
2023/05/28 08:32:05;;;;;;;9.20;3.00;;;19.30;99.90;;;;;;5004018;28;20534;-54
2023/05/28 08:34:35;;;;;;;8.73;2.97;;;19.50;99.90;;;;;;5006173;28;21079;-54
2023/05/28 08:37:02;;;;;;;8.90;3.13;;;19.50;99.90;;;;;;5007407;28;20491;-55
2023/05/28 08:39:28;;;;;;;8.43;2.70;;;19.50;99.90;;;;;;5007940;28;20526;-55
2023/05/28 08:41:55;;;;;;;9.03;3.10;;;19.60;99.90;;;;;;4998834;28;20460;-54
2023/05/28 08:44:22;;;;;;;10.70;2.50;;;19.50;99.90;;;;;;5003425;28;20476;-54
2023/05/28 08:46:50;;;;;;;5.90;2.53;;;19.60;99.90;;;;;;5006385;28;20479;-55
2023/05/28 08:49:19;;;;;;;8.13;3.20;;;19.70;99.90;;;;;;5009308;28;20533;-54
2023/05/28 08:51:53;;;;;;;4.13;3.10;;;19.90;99.90;;;;;;5008501;28;20491;-54
2023/05/28 08:54:20;;;;;;;9.03;3.07;;;19.90;99.90;;;;;;5007624;28;20560;-54
2023/05/28 08:56:47;;;;;;;5.10;2.80;;;20.00;99.90;;;;;;5007621;28;20519;-55
2023/05/28 08:59:16;;;;;;;5.47;2.90;;;20.10;99.90;;;;;;4999639;28;20496;-55
2023/05/28 09:01:44;;;;;;;6.03;3.70;;;20.20;99.90;;;;;;5005381;28;20853;-55
2023/05/28 09:04:11;;;;;;;6.70;2.70;;;20.20;99.90;;;;;;5003602;28;20551;-54
2023/05/28 09:06:38;;;;;;;5.10;2.97;;;20.30;99.90;;;;;;5003431;28;20494;-54
2023/05/28 09:09:07;;;;;;;5.23;2.70;;;20.60;99.90;;;;;;5006853;28;20488;-56
2023/05/28 09:11:34;;;;;;;6.17;2.30;;;20.80;99.90;;;;;;5000358;28;20516;-54
2023/05/28 09:14:10;;;;;;;6.33;2.73;;;21.20;99.90;;;;;;5000538;28;20507;-54
2023/05/28 09:16:40;;;;;;;5.50;2.50;;;21.30;99.90;;;;;;4999625;28;20573;-55
2023/05/28 09:19:07;;;;;;;4.23;2.80;;;21.40;99.90;;;;;;5003461;28;20465;-53
2023/05/28 09:21:33;;;;;;;4.10;2.73;;;21.50;99.90;;;;;;4999918;28;20526;-55
2023/05/28 09:24:01;;;;;;;5.17;3.03;;;21.60;99.90;;;;;;5001713;28;20484;-53
2023/05/28 09:26:31;;;;;;;5.83;2.73;;;21.60;99.90;;;;;;5008021;28;20455;-53
2023/05/28 09:28:58;;;;;;;5.50;2.40;;;21.60;99.90;;;;;;5002462;28;20984;-54
2023/05/28 09:31:30;;;;;;;4.53;2.90;;;21.60;99.90;;;;;;5005564;28;20840;-55
2023/05/28 09:33:57;;;;;;;4.27;2.90;;;21.50;99.90;;;;;;5004922;28;20498;-54
2023/05/28 09:36:24;;;;;;;4.40;2.70;;;21.60;99.90;;;;;;5008103;28;20525;-54
2023/05/28 09:38:50;;;;;;;14.70;3.40;;;21.60;99.90;;;;;;5008797;28;20517;-54
2023/05/28 09:41:22;;;;;;;10.80;3.37;;;21.70;99.90;;;;;;5010598;28;20839;-55
2023/05/28 09:43:57;;;;;;;7.10;3.03;;;21.80;99.90;;;;;;5011620;28;20470;-54
2023/05/28 09:46:28;;;;;;;2.23;2.13;;;22.10;99.90;;;;;;5008268;28;20455;-54
2023/05/28 09:48:54;;;;;;;5.27;2.30;;;22.10;99.90;;;;;;5006941;28;20533;-54
2023/05/28 09:51:24;;;;;;;5.40;2.40;;;22.00;99.90;;;;;;5003116;28;20938;-55
2023/05/28 09:53:53;;;;;;;8.47;2.77;;;21.90;99.90;;;;;;5008068;28;21065;-54
2023/05/28 09:56:21;;;;;;;3.47;2.63;;;22.10;99.90;;;;;;5002122;28;20495;-54
2023/05/28 09:58:50;;;;;;;3.90;2.57;;;22.30;99.90;;;;;;5003870;28;20491;-55
2023/05/28 10:01:23;;;;;;;7.90;3.40;;;22.10;99.90;;;;;;5012128;28;20455;-55
2023/05/28 10:03:57;;;;;;;4.10;2.73;;;22.20;99.90;;;;;;5012086;28;20459;-54
2023/05/28 10:06:26;;;;;;;5.37;2.83;;;22.80;99.90;;;;;;5013566;28;20452;-53
2023/05/28 10:08:55;;;;;;;7.50;2.70;;;23.20;99.90;;;;;;5011815;28;20510;-56
2023/05/28 10:11:25;;;;;;;11.30;2.30;;;23.40;99.90;;;;;;5011957;28;20942;-55
2023/05/28 10:13:52;;;;;;;2.40;2.20;;;23.50;99.90;;;;;;5009605;28;20459;-55
2023/05/28 10:16:21;;;;;;;6.10;2.70;;;22.80;99.90;;;;;;5003722;28;20553;-54
2023/05/28 10:18:48;;;;;;;5.63;2.60;;;23.10;99.90;;;;;;5006623;28;20895;-55
2023/05/28 10:21:15;;;;;;;8.00;2.83;;;23.10;99.90;;;;;;5007019;28;21023;-53
2023/05/28 10:23:42;;;;;;;2.70;2.33;;;23.30;99.90;;;;;;5007572;28;20459;-53
2023/05/28 10:26:10;;;;;;;2.90;2.70;;;23.70;99.90;;;;;;5010925;28;20480;-53
2023/05/28 10:28:39;;;;;;;12.07;2.33;;;24.20;99.90;;;;;;5014364;28;20914;-54
2023/05/28 10:31:08;;;;;;;9.40;2.27;;;24.50;90.00;;;;;;5013110;28;20506;-53
2023/05/28 10:33:41;;;;;;;2.67;2.20;;;25.00;78.20;;;;;;5010826;28;20510;-53
2023/05/28 10:36:11;;;;;;;5.40;2.30;;;25.90;21.80;;;;;;5009828;28;20515;-53
2023/05/28 10:38:43;;;;;;;4.20;2.67;;;26.00;20.60;;;;;;5010368;28;20484;-54
2023/05/28 10:41:10;;;;;;;4.10;2.23;;;26.00;21.80;;;;;;5009338;28;20474;-55
2023/05/28 10:43:46;;;;;;;3.23;2.23;;;25.60;21.90;;;;;;5010521;28;20464;-55
2023/05/28 10:46:17;;;;;;;4.37;2.13;;;25.00;22.30;;;;;;5003931;28;21579;-54
2023/05/28 10:49:23;;;;;;;4.77;2.97;;;24.90;20.20;;;;;;5013799;28;20472;-55
2023/05/28 10:52:00;;;;;;;4.40;2.50;;;25.60;22.10;;;;;;4992127;28;20463;-55
2023/05/28 10:54:42;;;;;;;6.25;2.80;;;25.70;22.20;;;;;;5022343;23;20531;-55
2023/05/28 10:57:11;;;;;;;19.13;2.33;;;26.30;22.10;;;;;;4992248;28;20510;-56
2023/05/28 10:59:40;;;;;;;11.80;3.27;;;26.20;22.40;;;;;;4992059;28;20469;-56
2023/05/28 11:02:08;;;;;;;3.87;2.60;;;25.60;24.30;;;;;;4993727;28;20469;-56
2023/05/28 11:04:35;;;;;;;3.80;2.53;;;25.80;25.00;;;;;;4991183;28;20523;-56
2023/05/28 11:07:03;;;;;;;2.90;2.60;;;25.30;23.80;;;;;;4998068;28;20445;-56
2023/05/28 11:09:30;;;;;;;4.30;2.10;;;25.00;23.10;;;;;;4998049;28;20495;-56
2023/05/28 11:11:59;;;;;;;8.63;3.50;;;24.90;80.70;;;;;;4993645;28;20531;-56
2023/05/28 11:14:31;;;;;;;3.70;2.33;;;24.50;20.10;;;;;;4989986;28;20496;-56
2023/05/28 11:16:57;;;;;;;1.97;1.87;;;24.70;20.60;;;;;;4997260;28;20563;-56
2023/05/28 11:19:24;;;;;;;2.70;2.50;;;24.80;80.60;;;;;;4994830;28;20464;-56
2023/05/28 11:21:51;;;;;;;6.30;2.50;;;24.90;20.60;;;;;;4988475;28;20465;-55
2023/05/28 11:24:20;;;;;;;2.20;2.00;;;24.90;75.30;;;;;;4988488;28;20465;-55
2023/05/28 11:26:46;;;;;;;6.20;2.80;;;24.80;21.40;;;;;;4993504;28;20448;-57
2023/05/28 11:29:14;;;;;;;3.40;2.73;;;24.70;24.00;;;;;;4989472;28;20522;-56
2023/05/28 11:31:41;;;;;;;5.40;2.57;;;24.80;23.60;;;;;;4977295;28;20476;-56
2023/05/28 11:34:07;;;;;;;4.40;2.60;;;25.50;24.30;;;;;;4986933;28;20508;-57
2023/05/28 11:36:39;;;;;;;2.43;2.23;;;25.30;21.00;;;;;;4990920;28;21010;-57
2023/05/28 11:39:06;;;;;;;3.17;1.97;;;24.80;21.50;;;;;;4992060;28;20535;-52
2023/05/28 11:41:34;;;;;;;2.10;1.90;;;24.50;22.80;;;;;;4985098;28;20467;-52
2023/05/28 11:44:00;;;;;;;16.07;2.57;;;24.60;77.70;;;;;;4988568;28;20588;-53
2023/05/28 11:46:27;;;;;;;6.63;3.40;;;24.40;22.80;;;;;;4985544;28;20540;-54
2023/05/28 11:48:54;;;;;;;6.90;3.00;;;24.30;21.60;;;;;;4983845;28;20489;-52
2023/05/28 11:51:21;;;;;;;16.77;2.80;;;24.20;20.80;;;;;;4989972;28;20493;-52
2023/05/28 11:53:48;;;;;;;3.80;2.00;;;24.40;21.90;;;;;;4988598;28;20460;-53
2023/05/28 11:56:15;;;;;;;2.50;2.30;;;24.90;25.00;;;;;;4991541;28;20492;-53
2023/05/28 11:58:48;;;;;;;3.57;2.40;;;25.20;24.20;;;;;;4990505;28;20568;-53
2023/05/28 12:01:15;;;;;;;6.77;4.20;;;25.80;23.30;;;;;;4984344;28;20484;-53
2023/05/28 12:03:42;;;;;;;2.97;2.53;;;26.00;24.20;;;;;;4992343;28;20495;-53
2023/05/28 12:06:09;;;;;;;3.97;2.67;;;26.00;24.30;;;;;;4985883;28;20480;-52
2023/05/28 12:08:39;;;;;;;8.97;3.33;;;25.80;25.30;;;;;;4983337;28;20500;-54
2023/05/28 12:11:08;;;;;;;5.03;2.40;;;25.40;26.60;;;;;;4992382;28;20511;-53
2023/05/28 12:13:35;;;;;;;6.50;2.70;;;25.80;28.10;;;;;;4991283;28;20817;-52
2023/05/28 12:16:11;;;;;;;4.10;2.00;;;24.20;24.60;;;;;;4992218;28;20468;-52
2023/05/28 12:18:42;;;;;;;9.43;2.87;;;24.70;22.20;;;;;;4991588;28;20845;-53
2023/05/28 12:21:12;;;;;;;5.60;2.37;;;24.70;20.30;;;;;;4990495;28;20465;-53
2023/05/28 12:23:39;;;;;;;12.30;6.60;;;24.20;23.60;;;;;;4989303;28;20476;-53
2023/05/28 12:26:10;;;;;;;9.30;3.07;;;24.90;21.30;;;;;;4987034;28;20476;-53
2023/05/28 12:28:39;;;;;;;6.23;2.93;;;25.40;22.60;;;;;;4988121;28;20532;-53
2023/05/28 12:31:07;;;;;;;3.63;2.27;;;24.30;24.00;;;;;;4986787;28;20532;-53
2023/05/28 12:33:35;;;;;;;9.93;5.80;;;24.90;24.20;;;;;;4993076;28;20947;-53
2023/05/28 12:36:01;;;;;;;5.20;2.33;;;25.00;24.60;;;;;;4989840;28;20489;-53
2023/05/28 12:38:28;;;;;;;4.00;2.30;;;24.50;27.00;;;;;;4990165;28;20574;-52
2023/05/28 12:40:55;;;;;;;2.60;1.93;;;24.80;26.50;;;;;;4991375;28;20464;-52
2023/05/28 12:43:22;;;;;;;2.80;2.30;;;25.10;27.00;;;;;;5002724;28;20468;-52
2023/05/28 12:45:48;;;;;;;2.67;2.43;;;24.40;26.90;;;;;;4989199;28;20487;-52
2023/05/28 12:48:15;;;;;;;5.27;2.00;;;24.80;27.80;;;;;;4987363;28;20516;-53
2023/05/28 12:50:43;;;;;;;3.40;2.90;;;24.70;24.90;;;;;;4989175;28;20464;-52
2023/05/28 12:53:10;;;;;;;6.63;3.03;;;24.90;25.20;;;;;;4988976;28;20519;-52